メインページ
METAR-TAF:

METAR-TAF

空港 :

Quesnel, ブリティッシュコロンビア州, カナダ

緯度: 53-02N, 経度: 122-31W, 海抜: 545m

現時点の気象観測

当レポートは1時間5分前の01:00(UTC)に作成
北/北西の風 4kt
気温 15°C
湿度 55%
気圧 999 hPa
視程: 14.5km
高度9500ftの千切れ雲あり

METAR: CYQZ 260100Z AUTO 34004KT 9SM BKN095 15/06 A2950 RMK SLP000 DENSITY ALT 2600FT

時間: 19:05 (02:05 UTC)

予報

当レポートは40分前の01:25(UTC)に作成
予報は26日の 01時(UTC)から 26日の 06時(UTC)まで有効
北/北西の風 5kt
視程: 10km
高度4000ftの雲は散在している
高度7000ftの千切れ雲あり
26日の 01時(UTC)から 26日の 06時(UTC)まで一時的に
高度4000ftの千切れ雲あり
26日の 01時(UTC)から 26日の 03時(UTC)まで徐々に
南東の風 5kt

TAF: CYQZ 260125Z 2601/2606 34005KT P6SM SCT040 BKN070 TEMPO 2601/2606 BKN040 BECMG 2601/2603 14005KT RMK FCST BASED ON AUTO OBS. NXT FCST WILL BE ISSUED AT 261145Z

4,000以上の空港の気象観測と天気予報(METAR報とTAF報)

利用可能な観測所は地図上に黄色い丸と赤い丸で示す。

丸の上にカーソルを重ねると観測所名を参照できる。

次にクリックすると気象観測と天気予報を参照できる。

マップの切り替え:黒色「×」印の緑ボタンをクリックして拡大、「-」印の緑ボタンをクリックして縮小、緑色の三角印をクリックして隣りの地図に切り替え


METAR-TAF: